Time;durP1;ratioP1;P1;durP2;ratioP2;P2;SDS_P1;SDS_P2;PMS_P1;PMS_P2;Temp;Humidity;BMP_temperature;BMP_pressure;BME280_temperature;BME280_humidity;BME280_pressure;Samples;Min_cycle;Max_cycle;Signal;HPM_P1;HPM_P2
2023/10/24 00:01:57;;;;;;;9.55;5.93;;;;;;;13.30;100.00;99928.75;5077719;28;20392;-74
2023/10/24 00:04:25;;;;;;;10.60;6.85;;;;;;;13.28;100.00;99936.63;5090297;28;20053;-74
2023/10/24 00:06:53;;;;;;;9.52;6.30;;;;;;;13.21;100.00;99936.41;5057546;28;20074;-73
2023/10/24 00:09:20;;;;;;;8.48;5.85;;;;;;;13.13;100.00;99926.28;5064799;28;20060;-74
2023/10/24 00:11:48;;;;;;;11.05;6.53;;;;;;;13.10;100.00;99918.69;5094047;28;20063;-74
2023/10/24 00:14:15;;;;;;;9.82;6.30;;;;;;;13.21;100.00;99914.28;5075180;28;20044;-75
2023/10/24 00:16:43;;;;;;;12.15;6.72;;;;;;;13.24;100.00;99910.00;5057083;28;20048;-74
2023/10/24 00:19:10;;;;;;;11.77;6.45;;;;;;;13.21;100.00;99900.47;5075223;28;20119;-75
2023/10/24 00:21:38;;;;;;;10.25;6.55;;;;;;;13.28;100.00;99906.19;5056494;28;20365;-75
2023/10/24 00:24:06;;;;;;;14.30;6.97;;;;;;;13.30;100.00;99909.38;5056929;28;20049;-74
2023/10/24 00:26:33;;;;;;;9.65;6.30;;;;;;;13.42;100.00;99911.31;5041407;28;20071;-73
2023/10/24 00:29:00;;;;;;;11.02;6.95;;;;;;;13.51;100.00;99918.31;5074334;28;20057;-74
2023/10/24 00:31:28;;;;;;;14.02;7.00;;;;;;;13.54;100.00;99909.31;5057641;28;20716;-73
2023/10/24 00:33:56;;;;;;;13.68;7.57;;;;;;;13.42;100.00;99914.09;5057536;28;20036;-73
2023/10/24 00:36:23;;;;;;;11.77;7.57;;;;;;;13.38;100.00;99919.53;5075310;28;20056;-74
2023/10/24 00:38:50;;;;;;;13.88;7.60;;;;;;;13.45;100.00;99919.72;5040514;28;20057;-77
2023/10/24 00:41:19;;;;;;;14.02;8.43;;;;;;;13.64;100.00;99921.81;5075080;28;20055;-74
2023/10/24 00:43:46;;;;;;;14.65;8.70;;;;;;;13.63;100.00;99908.34;5057554;28;20079;-74
2023/10/24 00:46:14;;;;;;;14.93;8.60;;;;;;;13.62;100.00;99915.84;5030057;28;20053;-74
2023/10/24 00:48:42;;;;;;;16.30;9.40;;;;;;;13.36;100.00;99904.41;5051635;28;20056;-75
2023/10/24 00:51:09;;;;;;;13.60;9.50;;;;;;;13.44;100.00;99909.03;5058909;28;20488;-74
2023/10/24 00:53:38;;;;;;;13.55;9.00;;;;;;;13.31;100.00;99904.66;5055880;28;20052;-74
2023/10/24 00:56:10;;;;;;;11.93;8.40;;;;;;;13.40;100.00;99903.38;5073952;28;20052;-73
2023/10/24 00:58:38;;;;;;;18.17;9.50;;;;;;;13.48;100.00;99907.13;5074801;28;20037;-73
2023/10/24 01:01:10;;;;;;;16.27;9.00;;;;;;;13.42;100.00;99901.03;5073973;28;20041;-74
2023/10/24 01:03:39;;;;;;;13.60;9.35;;;;;;;13.43;100.00;99891.59;5062580;28;20048;-74
2023/10/24 01:06:08;;;;;;;14.10;9.18;;;;;;;13.54;100.00;99891.91;5057024;28;20044;-73
2023/10/24 01:08:36;;;;;;;13.32;9.27;;;;;;;13.48;100.00;99894.13;5075042;28;20463;-73
2023/10/24 01:11:04;;;;;;;16.02;9.30;;;;;;;13.30;100.00;99889.25;5075488;28;20108;-74
2023/10/24 01:13:32;;;;;;;14.30;9.82;;;;;;;13.11;100.00;99887.09;5075268;28;20048;-74
2023/10/24 01:15:59;;;;;;;18.58;9.93;;;;;;;13.06;100.00;99884.59;5094151;28;20154;-73
2023/10/24 01:18:27;;;;;;;14.02;10.27;;;;;;;13.02;100.00;99893.94;5059771;28;20059;-73
2023/10/24 01:20:54;;;;;;;14.95;10.10;;;;;;;13.08;100.00;99884.22;5056236;28;20045;-74
2023/10/24 01:23:21;;;;;;;16.25;10.57;;;;;;;13.30;100.00;99892.00;5055825;28;20052;-75
2023/10/24 01:25:51;;;;;;;16.88;10.73;;;;;;;13.38;100.00;99893.81;5055226;28;20044;-73
2023/10/24 01:28:18;;;;;;;16.80;10.23;;;;;;;13.45;100.00;99892.06;5074998;28;20052;-73
2023/10/24 01:30:46;;;;;;;13.85;10.75;;;;;;;13.32;100.00;99898.78;5055575;28;20044;-73
2023/10/24 01:33:13;;;;;;;14.98;11.10;;;;;;;13.25;100.00;99903.31;5056281;28;20044;-74
2023/10/24 01:35:41;;;;;;;18.55;11.35;;;;;;;13.30;100.00;99908.59;5074162;28;20052;-74
2023/10/24 01:38:08;;;;;;;17.23;11.57;;;;;;;13.51;100.00;99912.78;5055394;28;20052;-74
2023/10/24 01:40:35;;;;;;;17.20;11.63;;;;;;;13.41;100.00;99902.22;5038653;28;20052;-74
2023/10/24 01:43:03;;;;;;;21.02;12.13;;;;;;;13.42;100.00;99895.50;5039360;28;20541;-73
2023/10/24 01:45:30;;;;;;;17.20;11.93;;;;;;;13.44;100.00;99892.41;5055222;28;20055;-74
2023/10/24 01:47:58;;;;;;;14.60;11.18;;;;;;;13.48;100.00;99885.00;5055377;28;20048;-74
2023/10/24 01:50:25;;;;;;;16.35;13.27;;;;;;;13.54;100.00;99894.69;5054014;28;20056;-74
2023/10/24 01:52:54;;;;;;;17.00;12.07;;;;;;;13.50;100.00;99893.75;5052192;28;20045;-73
2023/10/24 01:55:21;;;;;;;15.85;11.55;;;;;;;13.54;100.00;99889.13;5053364;28;20049;-73
2023/10/24 01:57:49;;;;;;;18.73;12.98;;;;;;;13.56;100.00;99886.81;5071490;28;20056;-74
2023/10/24 02:00:17;;;;;;;16.90;12.25;;;;;;;13.45;100.00;99881.00;5055892;28;20059;-74
2023/10/24 02:02:45;;;;;;;16.90;11.75;;;;;;;13.46;100.00;99892.84;5061724;28;20055;-74
2023/10/24 02:05:12;;;;;;;17.08;12.10;;;;;;;13.50;100.00;99883.50;5094042;28;20047;-73
2023/10/24 02:07:40;;;;;;;20.10;12.88;;;;;;;13.45;100.00;99880.19;5074899;28;20060;-68
2023/10/24 02:10:08;;;;;;;15.73;12.40;;;;;;;13.46;100.00;99877.06;5044236;28;20055;-69
2023/10/24 02:12:36;;;;;;;20.52;12.20;;;;;;;13.40;100.00;99881.25;5054835;28;20056;-69
2023/10/24 02:15:04;;;;;;;16.20;11.88;;;;;;;13.49;100.00;99881.09;5073340;28;20087;-70
2023/10/24 02:17:31;;;;;;;16.13;12.45;;;;;;;13.49;100.00;99875.56;5038458;28;20053;-69
2023/10/24 02:19:59;;;;;;;15.05;11.80;;;;;;;13.52;100.00;99875.66;5055417;28;20053;-68
2023/10/24 02:22:27;;;;;;;16.15;11.90;;;;;;;13.48;100.00;99877.50;5073280;28;20436;-69
2023/10/24 02:24:54;;;;;;;15.50;12.45;;;;;;;13.64;100.00;99873.97;5073173;28;20396;-69
2023/10/24 02:27:21;;;;;;;17.33;12.02;;;;;;;13.72;100.00;99873.81;5038591;28;20064;-69
2023/10/24 02:29:50;;;;;;;17.55;11.80;;;;;;;13.69;100.00;99879.25;5073982;28;20127;-73
2023/10/24 02:32:17;;;;;;;15.18;12.00;;;;;;;13.57;100.00;99880.13;5055454;28;20041;-67
2023/10/24 02:34:49;;;;;;;15.07;11.38;;;;;;;13.57;100.00;99875.41;5055488;28;20660;-69
2023/10/24 02:37:17;;;;;;;15.52;12.20;;;;;;;13.65;100.00;99870.06;5057650;28;20053;-69
2023/10/24 02:39:45;;;;;;;16.08;11.50;;;;;;;13.80;100.00;99869.28;5077732;28;20045;-73
2023/10/24 02:42:12;;;;;;;20.77;11.68;;;;;;;13.68;100.00;99872.13;5056011;28;20040;-72
2023/10/24 02:44:40;;;;;;;14.40;10.55;;;;;;;13.69;100.00;99871.75;5058469;28;20789;-70
2023/10/24 02:47:09;;;;;;;17.33;11.32;;;;;;;13.70;100.00;99880.88;5056017;28;20056;-70
2023/10/24 02:49:37;;;;;;;15.48;10.05;;;;;;;13.75;100.00;99866.78;5040983;28;20048;-69
2023/10/24 02:52:04;;;;;;;14.27;10.43;;;;;;;13.81;100.00;99868.91;5071420;28;20048;-69
2023/10/24 02:54:32;;;;;;;12.82;9.68;;;;;;;13.85;100.00;99869.00;5042715;28;20059;-69
2023/10/24 02:56:59;;;;;;;13.15;9.52;;;;;;;13.91;100.00;99868.41;5076102;28;20056;-69
2023/10/24 02:59:27;;;;;;;13.20;9.07;;;;;;;13.82;100.00;99867.78;5057753;28;20049;-69
2023/10/24 03:01:54;;;;;;;11.68;8.70;;;;;;;13.72;100.00;99867.50;5060930;28;20060;-69
2023/10/24 03:04:22;;;;;;;11.85;8.73;;;;;;;13.94;100.00;99855.81;5081462;28;20056;-70
2023/10/24 03:06:49;;;;;;;12.15;8.73;;;;;;;14.00;100.00;99866.25;5058100;28;20502;-73
2023/10/24 03:09:17;;;;;;;13.23;8.35;;;;;;;13.94;100.00;99855.81;5055057;28;20051;-74
2023/10/24 03:11:47;;;;;;;12.30;8.18;;;;;;;13.90;100.00;99852.94;5064225;28;20081;-69
2023/10/24 03:14:14;;;;;;;10.10;7.80;;;;;;;13.98;100.00;99865.00;5058541;28;20048;-73
2023/10/24 03:16:42;;;;;;;12.55;8.23;;;;;;;13.96;100.00;99864.56;5076824;28;20095;-73
2023/10/24 03:19:09;;;;;;;13.73;7.88;;;;;;;14.00;100.00;99857.94;5058424;28;20045;-73
2023/10/24 03:21:37;;;;;;;12.57;7.90;;;;;;;13.86;100.00;99856.78;5057726;28;20055;-73
2023/10/24 03:24:05;;;;;;;10.13;7.32;;;;;;;13.92;100.00;99856.16;5057376;28;20048;-72
2023/10/24 03:26:32;;;;;;;10.93;7.38;;;;;;;13.97;100.00;99864.19;5059237;28;20152;-73
2023/10/24 03:28:59;;;;;;;10.98;6.50;;;;;;;14.00;100.00;99851.63;5037647;28;20456;-74
2023/10/24 03:31:27;;;;;;;9.32;6.50;;;;;;;14.06;100.00;99858.50;5070265;28;20052;-73
2023/10/24 03:33:54;;;;;;;9.40;6.03;;;;;;;13.88;100.00;99860.78;5058735;28;20044;-74
2023/10/24 03:36:22;;;;;;;9.38;6.28;;;;;;;13.90;100.00;99863.19;5076660;28;20052;-74
2023/10/24 03:38:49;;;;;;;7.28;5.63;;;;;;;13.86;100.00;99860.34;5054051;28;20060;-73
2023/10/24 03:41:17;;;;;;;10.88;5.63;;;;;;;13.86;100.00;99863.13;5056643;28;20041;-73
2023/10/24 03:43:48;;;;;;;10.82;5.55;;;;;;;13.88;100.00;99868.31;5056363;28;20041;-74
2023/10/24 03:46:16;;;;;;;9.70;5.35;;;;;;;13.83;100.00;99863.03;5073269;28;20048;-74
2023/10/24 03:48:43;;;;;;;9.50;5.20;;;;;;;13.72;100.00;99868.28;5074988;28;20056;-74
2023/10/24 03:51:11;;;;;;;8.07;5.53;;;;;;;13.84;100.00;99862.69;5057911;28;20061;-73
2023/10/24 03:53:38;;;;;;;8.60;5.13;;;;;;;13.91;100.00;99868.41;5057120;28;20518;-69
2023/10/24 03:56:06;;;;;;;8.13;4.57;;;;;;;13.95;100.00;99863.75;5074073;28;20077;-72
2023/10/24 03:58:33;;;;;;;8.48;5.15;;;;;;;13.89;100.00;99861.63;5058344;28;20063;-73
2023/10/24 04:01:04;;;;;;;6.43;4.32;;;;;;;13.98;100.00;99860.25;5073896;28;20059;-73
2023/10/24 04:03:32;;;;;;;9.45;4.70;;;;;;;14.06;100.00;99864.84;5091710;28;20048;-74
2023/10/24 04:05:59;;;;;;;9.02;4.57;;;;;;;14.06;100.00;99861.25;5096000;28;20052;-69
2023/10/24 04:08:26;;;;;;;8.02;4.90;;;;;;;14.16;100.00;99857.94;5041077;28;20057;-69
2023/10/24 04:10:54;;;;;;;7.13;4.43;;;;;;;14.09;100.00;99863.31;5056195;28;20067;-69
2023/10/24 04:13:22;;;;;;;7.40;4.45;;;;;;;14.06;100.00;99855.72;5037008;28;20049;-69
2023/10/24 04:15:52;;;;;;;6.72;4.57;;;;;;;14.06;100.00;99861.25;5037800;28;20053;-70
2023/10/24 04:18:19;;;;;;;9.75;3.95;;;;;;;14.03;100.00;99851.72;5054542;28;20496;-71
2023/10/24 04:20:46;;;;;;;6.85;4.55;;;;;;;14.07;100.00;99844.28;5053184;28;20071;-74
2023/10/24 04:23:14;;;;;;;7.43;3.95;;;;;;;13.90;100.00;99852.13;5036889;28;20057;-75
2023/10/24 04:25:42;;;;;;;6.35;4.32;;;;;;;13.98;100.00;99848.41;5054617;28;20049;-73
2023/10/24 04:28:09;;;;;;;7.60;3.65;;;;;;;13.87;100.00;99852.84;5055621;28;20060;-73
2023/10/24 04:30:41;;;;;;;9.45;4.00;;;;;;;13.87;100.00;99866.69;5020797;28;20683;-72
2023/10/24 04:33:08;;;;;;;5.93;3.95;;;;;;;13.95;100.00;99865.72;5037495;28;20041;-73
2023/10/24 04:35:50;;;;;;;5.60;3.88;;;;;;;13.93;100.00;99862.50;5055069;28;20040;-73
2023/10/24 04:38:18;;;;;;;6.35;3.92;;;;;;;13.84;100.00;99856.34;5053241;28;20053;-72
2023/10/24 04:40:46;;;;;;;6.78;4.10;;;;;;;13.73;100.00;99838.63;5053873;28;20080;-75
2023/10/24 04:43:14;;;;;;;6.10;3.35;;;;;;;13.75;100.00;99847.41;5054009;28;20044;-70
2023/10/24 04:45:41;;;;;;;6.47;3.83;;;;;;;13.62;100.00;99862.44;5053881;28;20053;-75
2023/10/24 04:48:10;;;;;;;10.77;4.00;;;;;;;13.51;100.00;99871.28;5021527;28;20040;-74
2023/10/24 04:50:38;;;;;;;5.82;4.00;;;;;;;13.62;100.00;99866.03;5053979;28;20049;-72
2023/10/24 04:53:06;;;;;;;5.88;3.50;;;;;;;13.83;100.00;99849.19;5053131;28;20037;-74
2023/10/24 04:55:35;;;;;;;5.43;3.33;;;;;;;13.95;100.00;99847.13;5053089;28;20052;-73
2023/10/24 04:58:04;;;;;;;5.15;3.28;;;;;;;14.02;100.00;99860.34;5054512;28;20051;-73
2023/10/24 05:00:31;;;;;;;5.50;3.58;;;;;;;13.88;100.00;99868.31;5054353;28;20048;-73
2023/10/24 05:02:59;;;;;;;5.90;3.33;;;;;;;13.94;100.00;99864.13;5064294;28;20683;-74
2023/10/24 05:05:27;;;;;;;6.78;3.50;;;;;;;13.96;100.00;99862.59;5072766;28;20060;-73
2023/10/24 05:07:54;;;;;;;5.30;3.28;;;;;;;13.93;100.00;99857.75;5086513;28;20064;-70
2023/10/24 05:10:22;;;;;;;5.53;3.28;;;;;;;13.93;100.00;99856.97;5076181;28;20052;-69
2023/10/24 05:12:49;;;;;;;5.93;3.67;;;;;;;14.00;100.00;99851.63;5094859;28;20052;-74
2023/10/24 05:15:19;;;;;;;6.57;3.63;;;;;;;14.02;100.00;99852.03;5076948;28;20627;-74
2023/10/24 05:17:54;;;;;;;5.15;3.17;;;;;;;14.02;100.00;99840.97;5088638;28;20044;-74
2023/10/24 05:20:26;;;;;;;5.72;3.20;;;;;;;13.99;100.00;99842.50;5056289;28;20047;-73
2023/10/24 05:23:04;;;;;;;;;;;;;;;;;;;;;
2023/10/24 05:26:00;;;;;;;4.65;3.00;;;;;;;14.06;100.00;99848.22;5073902;28;20044;-72
2023/10/24 05:28:30;;;;;;;7.85;3.40;;;;;;;14.06;100.00;99855.72;5073139;28;20048;-73
2023/10/24 05:30:57;;;;;;;5.15;3.55;;;;;;;14.06;100.00;99848.22;5071058;28;20060;-73
2023/10/24 05:33:25;;;;;;;6.10;3.47;;;;;;;13.94;100.00;99844.72;5073717;28;20060;-73
2023/10/24 05:35:53;;;;;;;7.20;3.33;;;;;;;13.84;100.00;99846.09;5052573;28;20049;-73
2023/10/24 05:38:20;;;;;;;5.43;3.33;;;;;;;13.92;100.00;99834.03;5054003;28;20515;-74
2023/10/24 05:40:48;;;;;;;6.05;3.35;;;;;;;13.75;100.00;99828.84;5035214;28;20056;-74
2023/10/24 05:43:15;;;;;;;7.07;3.63;;;;;;;13.81;100.00;99834.91;5053556;28;20052;-73
2023/10/24 05:45:43;;;;;;;7.10;3.95;;;;;;;13.82;100.00;99833.75;5054275;28;20040;-74
2023/10/24 05:48:10;;;;;;;4.65;3.58;;;;;;;13.76;100.00;99841.50;5056055;28;20118;-73
2023/10/24 05:50:39;;;;;;;6.57;4.05;;;;;;;13.84;100.00;99848.84;5073522;28;20056;-73
2023/10/24 05:53:06;;;;;;;6.53;4.18;;;;;;;13.85;100.00;99857.94;5073702;28;20399;-74
2023/10/24 05:55:36;;;;;;;9.15;3.97;;;;;;;13.82;100.00;99861.41;5074322;28;20057;-73
2023/10/24 05:58:03;;;;;;;9.32;4.45;;;;;;;13.83;100.00;99851.94;5073442;28;20060;-73
2023/10/24 06:00:30;;;;;;;6.55;3.83;;;;;;;14.13;100.00;99845.63;5039245;28;20067;-74
2023/10/24 06:02:58;;;;;;;5.80;4.07;;;;;;;13.81;100.00;99851.53;5082134;28;20052;-73
2023/10/24 06:05:26;;;;;;;7.03;4.10;;;;;;;13.81;100.00;99852.31;5059187;28;20053;-73
2023/10/24 06:07:53;;;;;;;8.88;4.13;;;;;;;13.85;100.00;99860.72;5047047;28;20049;-72
2023/10/24 06:10:20;;;;;;;7.65;4.15;;;;;;;13.98;100.00;99870.56;5055131;28;20044;-73
2023/10/24 06:12:48;;;;;;;7.63;4.25;;;;;;;13.93;100.00;99868.84;5046008;28;20476;-73
2023/10/24 06:15:15;;;;;;;6.78;4.25;;;;;;;13.92;100.00;99875.53;5053613;28;20041;-75
2023/10/24 06:17:43;;;;;;;9.02;3.65;;;;;;;13.84;100.00;99881.25;5018947;28;20048;-74
2023/10/24 06:20:12;;;;;;;7.30;4.68;;;;;;;13.64;100.00;99882.28;5051864;28;20049;-75
2023/10/24 06:22:40;;;;;;;6.28;4.20;;;;;;;13.54;100.00;99880.84;5054506;28;20415;-76
2023/10/24 06:25:18;;;;;;;7.15;3.90;;;;;;;13.57;100.00;99883.72;5073024;28;20051;-77
2023/10/24 06:28:02;;;;;;;6.50;4.22;;;;;;;13.63;100.00;99881.50;5073116;28;20518;-77
2023/10/24 06:30:34;;;;;;;9.00;4.60;;;;;;;13.52;100.00;99886.72;5057270;28;20041;-73
2023/10/24 06:33:02;;;;;;;9.13;4.47;;;;;;;13.69;100.00;99891.13;5072841;28;20049;-75
2023/10/24 06:35:30;;;;;;;7.07;4.15;;;;;;;13.60;100.00;99895.22;5073528;28;20049;-76
2023/10/24 06:37:57;;;;;;;8.02;4.55;;;;;;;13.46;100.00;99893.66;5073263;28;20052;-74
2023/10/24 06:40:24;;;;;;;7.10;4.05;;;;;;;13.47;100.00;99891.72;5073654;28;20048;-75
2023/10/24 06:42:52;;;;;;;7.72;3.78;;;;;;;13.51;100.00;99898.94;5073415;28;20048;-75
2023/10/24 06:45:20;;;;;;;6.82;3.50;;;;;;;13.55;100.00;99894.31;5038605;28;20045;-72
2023/10/24 06:47:47;;;;;;;7.63;3.33;;;;;;;13.90;100.00;99900.00;5036046;28;20072;-74
2023/10/24 06:50:15;;;;;;;6.38;2.90;;;;;;;13.97;100.00;99902.97;5067971;28;20045;-73
2023/10/24 06:52:42;;;;;;;5.68;2.90;;;;;;;14.05;100.00;99901.97;5047596;28;20057;-71
2023/10/24 06:55:10;;;;;;;4.90;2.55;;;;;;;14.29;100.00;99906.59;5064602;28;20032;-74
2023/10/24 06:57:38;;;;;;;6.32;3.15;;;;;;;14.27;100.00;99906.97;5071004;28;20055;-72
2023/10/24 07:00:06;;;;;;;6.40;3.58;;;;;;;14.43;100.00;99915.25;5054674;28;20056;-75
2023/10/24 07:02:34;;;;;;;7.25;4.10;;;;;;;14.35;100.00;99911.50;5043372;28;20047;-78
2023/10/24 07:05:02;;;;;;;7.63;3.80;;;;;;;14.24;100.00;99913.16;5041411;28;20596;-70
2023/10/24 07:07:29;;;;;;;10.43;3.78;;;;;;;14.19;100.00;99926.50;5039400;28;20072;-74
2023/10/24 07:09:58;;;;;;;10.27;4.05;;;;;;;14.04;100.00;99922.53;5066456;28;20049;-71
2023/10/24 07:12:29;;;;;;;9.20;3.42;;;;;;;13.65;100.00;99939.25;5034370;28;20047;-71
2023/10/24 07:15:03;;;;;;;7.00;4.38;;;;;;;13.79;100.00;99939.66;5054376;28;20055;-71
2023/10/24 07:17:32;;;;;;;7.40;3.65;;;;;;;13.87;100.00;99935.91;5032658;28;20061;-70
2023/10/24 07:20:00;;;;;;;11.45;3.78;;;;;;;13.92;100.00;99944.75;5046147;28;20056;-72
2023/10/24 07:22:28;;;;;;;7.15;3.40;;;;;;;13.74;100.00;99950.97;5050617;28;20048;-73
2023/10/24 07:24:56;;;;;;;8.77;3.25;;;;;;;13.69;100.00;99953.97;5053425;28;20051;-71
2023/10/24 07:27:23;;;;;;;6.85;3.40;;;;;;;13.65;100.00;99953.09;5056181;28;20507;-72
2023/10/24 07:29:51;;;;;;;10.13;3.28;;;;;;;13.76;100.00;99959.69;5072680;28;20072;-72
2023/10/24 07:32:19;;;;;;;12.77;3.40;;;;;;;13.77;100.00;99953.84;5056993;28;20052;-72
2023/10/24 07:34:48;;;;;;;7.85;3.17;;;;;;;13.60;100.00;99953.34;5058338;28;20045;-72
2023/10/24 07:37:16;;;;;;;16.27;3.17;;;;;;;13.31;100.00;99949.75;5053264;28;20494;-72
2023/10/24 07:39:43;;;;;;;15.27;2.90;;;;;;;13.22;100.00;99951.84;5067800;28;20056;-72
2023/10/24 07:42:13;;;;;;;11.02;2.88;;;;;;;13.25;100.00;99950.34;5046638;28;20072;-73
2023/10/24 07:44:53;;;;;;;10.70;3.22;;;;;;;13.51;100.00;99945.19;5062878;28;20037;-73
2023/10/24 07:47:23;;;;;;;9.30;2.88;;;;;;;13.38;100.00;99949.94;5030901;28;20068;-73
2023/10/24 07:49:50;;;;;;;14.32;3.08;;;;;;;13.27;100.00;99959.06;5072633;28;20387;-73
2023/10/24 07:52:18;;;;;;;12.15;2.97;;;;;;;13.51;100.00;99956.25;5051537;28;20056;-74
2023/10/24 07:54:45;;;;;;;9.10;3.00;;;;;;;13.39;100.00;99957.06;5079469;28;20055;-73
2023/10/24 07:57:15;;;;;;;9.82;2.40;;;;;;;13.65;100.00;99962.16;5074905;28;20067;-73
2023/10/24 07:59:42;;;;;;;7.78;2.47;;;;;;;13.56;100.00;99954.03;5043856;28;20056;-73
2023/10/24 08:02:10;;;;;;;9.73;2.78;;;;;;;13.63;100.00;99958.97;5033788;28;20049;-73
2023/10/24 08:04:37;;;;;;;6.75;1.88;;;;;;;13.71;100.00;99954.44;5053848;28;20068;-73
2023/10/24 08:07:05;;;;;;;8.65;2.40;;;;;;;13.37;100.00;99953.06;5023770;28;20045;-72
2023/10/24 08:09:32;;;;;;;7.97;2.60;;;;;;;13.55;100.00;99957.94;5069564;28;20053;-74
2023/10/24 08:12:00;;;;;;;12.18;3.00;;;;;;;13.52;100.00;99961.44;5064803;28;20051;-74
2023/10/24 08:14:28;;;;;;;8.43;2.00;;;;;;;13.72;100.00;99962.38;5071125;28;20496;-73
2023/10/24 08:16:55;;;;;;;9.93;2.53;;;;;;;13.90;100.00;99951.78;5053507;28;20047;-73
2023/10/24 08:19:22;;;;;;;11.35;2.40;;;;;;;13.99;98.30;99955.22;5036040;28;20423;-73
2023/10/24 08:21:50;;;;;;;6.32;2.35;;;;;;;13.88;96.90;99959.69;5068737;28;20060;-72
2023/10/24 08:24:17;;;;;;;10.05;2.30;;;;;;;13.69;96.60;99968.63;5054114;28;20040;-73
2023/10/24 08:26:44;;;;;;;7.72;2.47;;;;;;;13.83;96.86;99974.56;5072722;28;20052;-73
2023/10/24 08:29:32;;;;;;;8.88;1.92;;;;;;;14.12;96.49;99971.41;5056556;28;20074;-72
2023/10/24 08:31:59;;;;;;;9.25;3.13;;;;;;;14.16;95.86;99972.31;5072969;28;20044;-73
2023/10/24 08:34:29;;;;;;;7.50;2.08;;;;;;;14.16;93.84;99966.78;5074530;28;20056;-73
2023/10/24 08:36:56;;;;;;;7.95;2.50;;;;;;;14.03;94.63;99969.97;5055760;28;20048;-72
2023/10/24 08:39:23;;;;;;;8.90;2.10;;;;;;;14.22;94.35;99976.44;5073345;28;20056;-73
2023/10/24 08:41:53;;;;;;;5.57;1.73;;;;;;;14.04;93.66;99979.88;5054965;28;20049;-73
2023/10/24 08:44:20;;;;;;;9.98;2.08;;;;;;;13.89;94.06;99977.88;5065492;28;20059;-72
2023/10/24 08:46:48;;;;;;;9.43;2.50;;;;;;;14.08;93.67;99989.09;5046432;28;20043;-73
2023/10/24 08:49:19;;;;;;;8.13;1.73;;;;;;;14.06;93.20;99985.88;5050628;28;20055;-73
2023/10/24 08:51:47;;;;;;;10.60;1.98;;;;;;;14.19;93.00;99987.44;5062323;28;20051;-73
2023/10/24 08:54:15;;;;;;;12.20;2.30;;;;;;;14.22;92.33;99983.94;5051189;28;20052;-67
2023/10/24 08:56:42;;;;;;;6.28;1.88;;;;;;;14.41;91.80;99986.84;5069138;28;20057;-66
2023/10/24 08:59:12;;;;;;;9.07;2.40;;;;;;;14.46;90.27;99987.41;5052072;28;20060;-65
2023/10/24 09:01:40;;;;;;;12.27;2.33;;;;;;;14.54;90.17;99991.13;5070650;28;20064;-66
2023/10/24 09:04:08;;;;;;;12.90;2.45;;;;;;;14.43;89.91;99990.06;5064588;28;20392;-66
2023/10/24 09:06:36;;;;;;;7.63;1.80;;;;;;;14.47;89.18;99990.97;5051482;28;20044;-66
2023/10/24 09:09:04;;;;;;;6.22;1.98;;;;;;;14.55;89.39;99995.53;5059166;28;20085;-65
2023/10/24 09:17:17;;;;;;;8.30;2.03;;;;;;;14.32;89.87;100002.84;5246209;22;20071;-52
2023/10/24 09:19:45;;;;;;;8.80;2.10;;;;;;;14.73;88.13;100004.28;5071685;28;20044;-53
2023/10/24 09:22:16;;;;;;;9.25;2.20;;;;;;;14.79;86.88;100000.88;5055197;28;20048;-55
2023/10/24 09:24:45;;;;;;;9.88;2.75;;;;;;;14.26;88.49;100005.06;5073016;28;20063;-53
2023/10/24 09:27:16;;;;;;;6.07;1.67;;;;;;;14.30;88.08;100010.69;5054956;28;20044;-57
2023/10/24 09:29:48;;;;;;;11.48;2.33;;;;;;;14.39;88.33;100008.56;5073886;28;20044;-53
2023/10/24 09:32:16;;;;;;;9.77;2.22;;;;;;;14.44;87.30;99999.97;5058059;28;20059;-56
2023/10/24 09:34:45;;;;;;;9.25;1.92;;;;;;;14.73;86.52;100010.66;5053943;28;20072;-57
2023/10/24 09:37:13;;;;;;;11.25;2.03;;;;;;;14.82;85.55;100010.47;5077645;28;20067;-53
2023/10/24 09:39:57;;;;;;;10.98;2.00;;;;;;;14.63;85.26;100011.16;5069668;28;20048;-53
2023/10/24 09:42:31;;;;;;;6.82;2.03;;;;;;;14.68;85.11;100002.56;5061497;28;20427;-56
2023/10/24 09:45:06;;;;;;;10.35;2.10;;;;;;;14.88;84.85;100012.59;5073853;28;20049;-53
2023/10/24 09:47:34;;;;;;;12.75;1.80;;;;;;;15.05;83.84;100009.44;5038718;28;20052;-56
2023/10/24 09:50:04;;;;;;;8.07;1.50;;;;;;;15.04;83.70;100010.63;5052514;28;20052;-55
2023/10/24 09:52:31;;;;;;;7.43;1.50;;;;;;;14.97;83.47;100006.88;5062326;28;20044;-55
2023/10/24 09:54:59;;;;;;;7.85;1.55;;;;;;;14.88;84.19;100004.28;5058156;28;20048;-54
2023/10/24 09:57:27;;;;;;;8.38;1.75;;;;;;;15.11;83.72;99999.69;5054086;28;20048;-56
2023/10/24 09:59:58;;;;;;;10.15;2.15;;;;;;;15.20;82.35;99999.50;5059459;28;20064;-57
2023/10/24 10:02:26;;;;;;;10.82;2.10;;;;;;;15.10;82.74;100003.63;5072710;28;20533;-61
2023/10/24 10:04:54;;;;;;;6.10;1.73;;;;;;;15.13;82.49;100002.88;5073325;28;20053;-54
2023/10/24 10:07:24;;;;;;;9.18;2.33;;;;;;;15.11;82.86;100002.47;5073059;28;20063;-56
2023/10/24 10:09:53;;;;;;;32.78;20.88;;;;;;;15.45;81.09;99995.31;5055185;28;20514;-57
2023/10/24 10:12:20;;;;;;;34.15;19.60;;;;;;;15.57;80.31;99997.97;5078456;28;20565;-55
2023/10/24 10:15:02;;;;;;;19.65;7.63;;;;;;;15.52;79.37;99998.25;5049099;28;20048;-64
2023/10/24 10:17:46;;;;;;;20.30;6.72;;;;;;;15.34;79.87;100006.16;5072681;28;20071;-64
2023/10/24 10:20:51;;;;;;;13.27;5.13;;;;;;;15.47;80.13;100009.66;5072100;28;20048;-64
2023/10/24 10:23:37;;;;;;;15.85;5.40;;;;;;;15.35;79.48;100001.41;5067273;28;20048;-64
2023/10/24 10:26:24;;;;;;;28.33;7.80;;;;;;;15.42;79.07;99996.88;5079580;28;20051;-65
2023/10/24 10:29:10;;;;;;;22.52;8.20;;;;;;;15.31;78.80;100006.06;5066372;28;20053;-64
2023/10/24 10:31:59;;;;;;;17.63;7.35;;;;;;;15.47;78.33;100009.66;5057558;28;20056;-64
2023/10/24 10:34:46;;;;;;;17.60;6.47;;;;;;;15.39;77.92;100007.84;5069864;28;20051;-64
2023/10/24 10:37:14;;;;;;;14.35;6.95;;;;;;;15.44;77.74;100010.38;5082260;28;20040;-63
2023/10/24 10:39:41;;;;;;;13.90;5.93;;;;;;;15.50;78.02;100004.16;5073857;28;20045;-64
2023/10/24 10:42:49;;;;;;;13.63;4.25;;;;;;;15.92;75.69;99990.38;5071233;28;20052;-64
2023/10/24 10:45:28;;;;;;;10.60;3.28;;;;;;;15.89;74.35;100002.22;5045804;28;20049;-64
2023/10/24 10:47:59;;;;;;;12.55;3.70;;;;;;;15.55;77.14;100000.31;5077083;28;20431;-63
2023/10/24 10:50:31;;;;;;;11.50;4.30;;;;;;;15.39;77.06;99992.03;5067614;28;20495;-63
2023/10/24 10:53:20;;;;;;;16.73;5.43;;;;;;;15.45;76.87;99995.31;5072173;28;20041;-64
2023/10/24 10:56:19;;;;;;;12.70;6.03;;;;;;;15.47;76.40;99988.25;5078550;28;20041;-63
2023/10/24 10:59:00;;;;;;;16.70;4.63;;;;;;;15.68;75.39;99985.13;5073493;28;20063;-63
2023/10/24 11:02:00;;;;;;;7.95;2.92;;;;;;;15.95;73.65;99978.56;5072485;28;20103;-65
2023/10/24 11:04:28;;;;;;;12.93;4.13;;;;;;;15.83;74.02;99980.66;5065732;28;20121;-65
2023/10/24 11:06:56;;;;;;;16.52;3.47;;;;;;;15.98;73.68;99986.16;5075347;28;20128;-64
2023/10/24 11:09:30;;;;;;;22.42;11.20;;;;;;;15.89;74.56;99993.06;5075050;28;20049;-65
2023/10/24 11:12:24;;;;;;;54.17;29.30;;;;;;;15.92;74.52;99992.38;5073531;28;20063;-64
2023/10/24 11:15:24;;;;;;;26.42;13.05;;;;;;;15.43;73.98;99995.69;5075457;28;20045;-64
2023/10/24 11:17:51;;;;;;;19.95;10.27;;;;;;;15.64;74.17;99992.56;5031629;28;20689;-65
2023/10/24 11:20:19;;;;;;;25.13;10.85;;;;;;;15.79;74.26;99983.38;5075673;28;20059;-65
2023/10/24 11:22:50;;;;;;;19.92;8.57;;;;;;;16.21;73.91;99989.78;5074241;28;20530;-64
2023/10/24 11:25:19;;;;;;;23.85;12.40;;;;;;;16.20;72.87;99993.72;5054372;28;20049;-64
2023/10/24 11:27:51;;;;;;;22.77;10.65;;;;;;;16.52;71.92;99994.31;5070897;28;20065;-65
2023/10/24 11:30:18;;;;;;;25.08;15.52;;;;;;;16.42;71.61;99989.34;5075568;28;20150;-64
2023/10/24 11:32:45;;;;;;;18.55;14.32;;;;;;;16.53;71.80;99993.94;5060329;28;20048;-65
2023/10/24 11:35:13;;;;;;;13.65;7.97;;;;;;;16.68;71.26;99984.66;5077225;28;20107;-64
2023/10/24 11:37:41;;;;;;;18.20;6.00;;;;;;;16.67;71.51;99985.84;5075654;28;20060;-64
2023/10/24 11:40:09;;;;;;;13.02;4.00;;;;;;;16.69;70.99;99986.28;5083588;28;20059;-65